Time;durP1;ratioP1;P1;durP2;ratioP2;P2;SDS_P1;SDS_P2;PMS_P1;PMS_P2;Temp;Humidity;BMP_temperature;BMP_pressure;BME280_temperature;BME280_humidity;BME280_pressure;Samples;Min_cycle;Max_cycle;Signal;HPM_P1;HPM_P2
2023/06/17 00:00:29;;;;;;;13.63;9.65;;;;;;;;;;5032903;28;20452;-71
2023/06/17 00:02:56;;;;;;;12.63;9.70;;;;;;;;;;5032790;28;20112;-72
2023/06/17 00:05:24;;;;;;;13.52;9.57;;;;;;;;;;5032617;28;20044;-73
2023/06/17 00:07:50;;;;;;;18.15;10.55;;;;;;;;;;5033082;28;20013;-73
2023/06/17 00:10:16;;;;;;;15.13;9.82;;;;;;;;;;5032813;28;20029;-73
2023/06/17 00:12:43;;;;;;;13.90;9.52;;;;;;;;;;5032611;28;20070;-73
2023/06/17 00:15:09;;;;;;;15.68;9.93;;;;;;;;;;5032646;28;20041;-71
2023/06/17 00:17:35;;;;;;;15.32;10.32;;;;;;;;;;5032458;28;20029;-71
2023/06/17 00:20:12;;;;;;;14.25;9.77;;;;;;;;;;5032363;28;20506;-71
2023/06/17 00:22:39;;;;;;;12.63;10.13;;;;;;;;;;5032416;28;20504;-71
2023/06/17 00:25:05;;;;;;;15.45;9.63;;;;;;;;;;5032489;28;20072;-71
2023/06/17 00:27:38;;;;;;;13.75;10.00;;;;;;;;;;5032561;28;20022;-71
2023/06/17 00:30:05;;;;;;;12.63;9.48;;;;;;;;;;5032545;28;20025;-71
2023/06/17 00:32:31;;;;;;;13.23;9.35;;;;;;;;;;5032578;28;20025;-71
2023/06/17 00:34:57;;;;;;;12.63;8.88;;;;;;;;;;5032279;28;20037;-71
2023/06/17 00:37:23;;;;;;;14.00;9.63;;;;;;;;;;5032375;28;20021;-71
2023/06/17 00:39:49;;;;;;;11.10;9.43;;;;;;;;;;5032271;28;20032;-71
2023/06/17 00:42:15;;;;;;;14.48;10.07;;;;;;;;;;5032317;28;20026;-71
2023/06/17 00:44:42;;;;;;;15.65;10.57;;;;;;;;;;5032307;28;20053;-71
2023/06/17 00:47:12;;;;;;;14.10;10.55;;;;;;;;;;5032299;28;20033;-71
2023/06/17 00:49:40;;;;;;;15.63;11.73;;;;;;;;;;5032319;28;20342;-71
2023/06/17 00:52:10;;;;;;;17.05;11.52;;;;;;;;;;5032664;28;20056;-71
2023/06/17 00:54:40;;;;;;;14.80;10.20;;;;;;;;;;5031790;28;20068;-71
2023/06/17 00:57:10;;;;;;;14.95;10.40;;;;;;;;;;5032290;28;20032;-71
2023/06/17 00:59:39;;;;;;;16.35;9.82;;;;;;;;;;5032231;28;20040;-71
2023/06/17 01:02:09;;;;;;;15.52;10.65;;;;;;;;;;5032173;28;20025;-71
2023/06/17 01:04:37;;;;;;;13.10;10.18;;;;;;;;;;5032485;28;20013;-71
2023/06/17 01:07:08;;;;;;;18.77;11.00;;;;;;;;;;5032408;28;20376;-71
2023/06/17 01:09:36;;;;;;;16.55;11.10;;;;;;;;;;5032370;28;20467;-71
2023/06/17 01:12:03;;;;;;;16.70;10.73;;;;;;;;;;5032126;28;20025;-71
2023/06/17 01:14:30;;;;;;;14.63;10.70;;;;;;;;;;5032368;28;20520;-71
2023/06/17 01:16:56;;;;;;;16.10;10.30;;;;;;;;;;5032104;28;20033;-71
2023/06/17 01:19:24;;;;;;;18.17;11.15;;;;;;;;;;5032059;28;20029;-70
2023/06/17 01:21:53;;;;;;;12.77;10.82;;;;;;;;;;5032244;28;20029;-70
2023/06/17 01:24:25;;;;;;;14.98;10.77;;;;;;;;;;5032280;28;20471;-70
2023/06/17 01:26:56;;;;;;;18.85;11.65;;;;;;;;;;5031853;28;20393;-70
2023/06/17 01:29:23;;;;;;;14.85;10.20;;;;;;;;;;5034630;28;20025;-70
2023/06/17 01:31:50;;;;;;;17.35;11.65;;;;;;;;;;5036050;28;20550;-71
2023/06/17 01:34:18;;;;;;;16.80;11.48;;;;;;;;;;5035810;28;20101;-70
2023/06/17 01:36:45;;;;;;;19.42;10.70;;;;;;;;;;5035588;28;20030;-71
2023/06/17 01:39:14;;;;;;;15.68;11.70;;;;;;;;;;5034333;28;20403;-71
2023/06/17 01:41:43;;;;;;;16.02;12.05;;;;;;;;;;5035806;28;20025;-71
2023/06/17 01:44:09;;;;;;;16.80;11.93;;;;;;;;;;5035065;28;20071;-71
2023/06/17 01:46:35;;;;;;;17.10;12.45;;;;;;;;;;5035560;28;20128;-71
2023/06/17 01:49:02;;;;;;;18.80;12.93;;;;;;;;;;5035635;28;20024;-71
2023/06/17 01:51:28;;;;;;;20.15;13.50;;;;;;;;;;5035746;28;20013;-71
2023/06/17 01:53:54;;;;;;;18.58;12.80;;;;;;;;;;5035608;28;20039;-71
2023/06/17 01:56:20;;;;;;;18.98;13.43;;;;;;;;;;5035449;28;20037;-71
2023/06/17 01:58:46;;;;;;;18.85;13.10;;;;;;;;;;5035386;28;20388;-71
2023/06/17 02:01:12;;;;;;;21.33;14.57;;;;;;;;;;5035286;28;20029;-71
2023/06/17 02:03:38;;;;;;;22.63;15.02;;;;;;;;;;5035372;28;20026;-71
2023/06/17 02:06:05;;;;;;;21.73;15.15;;;;;;;;;;5035254;28;20038;-71
2023/06/17 02:08:32;;;;;;;24.90;16.15;;;;;;;;;;5035093;28;20022;-71
2023/06/17 02:10:58;;;;;;;26.52;16.80;;;;;;;;;;5035426;28;20433;-71
2023/06/17 02:13:24;;;;;;;24.25;15.27;;;;;;;;;;5035069;28;20046;-71
2023/06/17 02:15:50;;;;;;;24.90;15.80;;;;;;;;;;5034922;28;20033;-71
2023/06/17 02:18:16;;;;;;;26.23;15.48;;;;;;;;;;5035062;28;20029;-71
2023/06/17 02:20:42;;;;;;;22.38;14.85;;;;;;;;;;5035001;28;20029;-71
2023/06/17 02:23:08;;;;;;;22.65;16.05;;;;;;;;;;5035133;28;20021;-71
2023/06/17 02:25:34;;;;;;;20.13;15.02;;;;;;;;;;5034845;28;20039;-71
2023/06/17 02:28:01;;;;;;;20.75;15.65;;;;;;;;;;5035005;28;20358;-71
2023/06/17 02:30:27;;;;;;;25.23;15.50;;;;;;;;;;5034314;28;20037;-70
2023/06/17 02:32:53;;;;;;;20.23;14.88;;;;;;;;;;5034347;28;20031;-70
2023/06/17 02:35:19;;;;;;;23.90;16.40;;;;;;;;;;5034509;28;20026;-70
2023/06/17 02:37:45;;;;;;;22.85;16.05;;;;;;;;;;5034703;28;20032;-70
2023/06/17 02:40:11;;;;;;;24.63;16.63;;;;;;;;;;5033318;28;20034;-70
2023/06/17 02:42:37;;;;;;;21.60;16.05;;;;;;;;;;5034961;28;20033;-71
2023/06/17 02:45:04;;;;;;;26.80;18.15;;;;;;;;;;5033191;28;20064;-73
2023/06/17 02:47:30;;;;;;;24.90;16.33;;;;;;;;;;5034253;28;20638;-73
2023/06/17 02:49:56;;;;;;;21.23;15.75;;;;;;;;;;5034293;28;20599;-71
2023/06/17 02:52:23;;;;;;;23.27;16.27;;;;;;;;;;5034369;28;20108;-71
2023/06/17 02:54:49;;;;;;;22.48;15.88;;;;;;;;;;5034563;28;20110;-71
2023/06/17 02:57:15;;;;;;;24.58;17.42;;;;;;;;;;5034319;28;20026;-71
2023/06/17 02:59:41;;;;;;;22.98;16.98;;;;;;;;;;5034295;28;20025;-70
2023/06/17 03:02:07;;;;;;;22.13;17.20;;;;;;;;;;5034262;28;20074;-71
2023/06/17 03:04:36;;;;;;;25.77;18.15;;;;;;;;;;5034100;28;20037;-71
2023/06/17 03:07:05;;;;;;;23.90;17.90;;;;;;;;;;5034046;28;20052;-71
2023/06/17 03:09:31;;;;;;;23.20;17.45;;;;;;;;;;5033848;28;20505;-70
2023/06/17 03:11:59;;;;;;;26.55;17.67;;;;;;;;;;5033898;28;20034;-70
2023/06/17 03:14:25;;;;;;;27.05;18.58;;;;;;;;;;5033857;28;20033;-70
2023/06/17 03:16:52;;;;;;;31.10;18.77;;;;;;;;;;5033812;28;20029;-70
2023/06/17 03:19:18;;;;;;;25.25;18.63;;;;;;;;;;5033392;28;20385;-70
2023/06/17 03:21:45;;;;;;;25.42;18.38;;;;;;;;;;5033523;28;20041;-70
2023/06/17 03:24:11;;;;;;;26.35;18.50;;;;;;;;;;5033381;28;20520;-71
2023/06/17 03:26:37;;;;;;;27.50;18.80;;;;;;;;;;5033416;28;20029;-71
2023/06/17 03:29:04;;;;;;;30.05;18.02;;;;;;;;;;5033382;28;20104;-70
2023/06/17 03:31:30;;;;;;;28.50;19.02;;;;;;;;;;5033458;28;20124;-70
2023/06/17 03:33:56;;;;;;;24.20;17.00;;;;;;;;;;5033523;28;20022;-70
2023/06/17 03:36:28;;;;;;;26.33;17.88;;;;;;;;;;5033622;28;20037;-70
2023/06/17 03:38:54;;;;;;;24.60;17.48;;;;;;;;;;5033653;28;20014;-70
2023/06/17 03:41:21;;;;;;;23.08;17.85;;;;;;;;;;5033257;28;20068;-70
2023/06/17 03:43:47;;;;;;;29.52;19.27;;;;;;;;;;5033094;28;20107;-70
2023/06/17 03:46:13;;;;;;;25.77;19.58;;;;;;;;;;5033214;28;20037;-70
2023/06/17 03:48:39;;;;;;;29.88;18.90;;;;;;;;;;5033043;28;20084;-70
2023/06/17 03:51:06;;;;;;;25.90;19.48;;;;;;;;;;5033080;28;20646;-70
2023/06/17 03:53:32;;;;;;;23.80;18.70;;;;;;;;;;5033048;28;20022;-70
2023/06/17 03:55:58;;;;;;;30.20;19.85;;;;;;;;;;5032666;28;20044;-70
2023/06/17 03:58:24;;;;;;;28.05;20.15;;;;;;;;;;5032730;28;20022;-70
2023/06/17 04:00:50;;;;;;;29.52;19.27;;;;;;;;;;5032900;28;20424;-70
2023/06/17 04:03:16;;;;;;;27.75;18.55;;;;;;;;;;5033090;28;20121;-70
2023/06/17 04:05:43;;;;;;;28.75;18.70;;;;;;;;;;5032768;28;20096;-70
2023/06/17 04:08:09;;;;;;;29.98;20.08;;;;;;;;;;5032860;28;20018;-70
2023/06/17 04:10:41;;;;;;;27.17;19.27;;;;;;;;;;5032803;28;20079;-70
2023/06/17 04:13:07;;;;;;;27.67;18.35;;;;;;;;;;5032768;28;20040;-70
2023/06/17 04:15:33;;;;;;;25.25;17.83;;;;;;;;;;5032578;28;20044;-70
2023/06/17 04:18:02;;;;;;;25.27;17.77;;;;;;;;;;5032691;28;20025;-70
2023/06/17 04:20:27;;;;;;;23.50;17.55;;;;;;;;;;5032884;28;20025;-70
2023/06/17 04:22:53;;;;;;;25.70;15.93;;;;;;;;;;5032500;28;20072;-70
2023/06/17 04:25:20;;;;;;;26.20;16.05;;;;;;;;;;5032422;28;20056;-70
2023/06/17 04:27:48;;;;;;;21.63;15.63;;;;;;;;;;5032594;28;20028;-70
2023/06/17 04:30:15;;;;;;;26.17;16.23;;;;;;;;;;5032570;28;20373;-70
2023/06/17 04:32:42;;;;;;;24.83;16.63;;;;;;;;;;5032628;28;20029;-70
2023/06/17 04:35:10;;;;;;;21.50;15.07;;;;;;;;;;5032522;28;20030;-70
2023/06/17 04:37:37;;;;;;;27.00;14.15;;;;;;;;;;5032358;28;20027;-71
2023/06/17 04:40:06;;;;;;;20.98;14.73;;;;;;;;;;5032407;28;20048;-71
2023/06/17 04:42:34;;;;;;;22.77;15.02;;;;;;;;;;5032729;28;20116;-70
2023/06/17 04:45:00;;;;;;;24.58;15.10;;;;;;;;;;5031516;28;20067;-71
2023/06/17 04:47:28;;;;;;;20.23;14.43;;;;;;;;;;5032261;28;20017;-71
2023/06/17 04:49:54;;;;;;;18.48;13.40;;;;;;;;;;5032708;28;20026;-71
2023/06/17 04:52:24;;;;;;;21.60;14.98;;;;;;;;;;5032164;28;20565;-71
2023/06/17 04:54:50;;;;;;;22.63;14.90;;;;;;;;;;5032609;28;20030;-71
2023/06/17 04:57:16;;;;;;;20.60;14.30;;;;;;;;;;5032263;28;20029;-71
2023/06/17 04:59:42;;;;;;;21.65;13.90;;;;;;;;;;5032192;28;20033;-71
2023/06/17 05:02:08;;;;;;;17.50;12.02;;;;;;;;;;5032256;28;20026;-71
2023/06/17 05:04:34;;;;;;;18.02;12.45;;;;;;;;;;5035044;28;20360;-71
2023/06/17 05:07:00;;;;;;;18.63;12.85;;;;;;;;;;5036142;28;20072;-71
2023/06/17 05:09:26;;;;;;;17.23;13.45;;;;;;;;;;5036173;28;20457;-71
2023/06/17 05:11:52;;;;;;;16.75;11.52;;;;;;;;;;5036481;28;20041;-71
2023/06/17 05:14:18;;;;;;;15.80;10.93;;;;;;;;;;5036194;28;20021;-71
2023/06/17 05:16:44;;;;;;;17.25;10.77;;;;;;;;;;5036023;28;20045;-71
2023/06/17 05:19:10;;;;;;;20.13;13.10;;;;;;;;;;5036214;28;20071;-71
2023/06/17 05:21:36;;;;;;;19.42;11.57;;;;;;;;;;5036065;28;20029;-71
2023/06/17 05:24:02;;;;;;;19.20;12.93;;;;;;;;;;5035966;28;20061;-71
2023/06/17 05:26:28;;;;;;;18.80;12.05;;;;;;;;;;5035783;28;20057;-71
2023/06/17 05:28:54;;;;;;;21.75;13.20;;;;;;;;;;5035774;28;20105;-71
2023/06/17 05:31:20;;;;;;;18.95;12.32;;;;;;;;;;5035708;28;20368;-71
2023/06/17 05:33:46;;;;;;;16.92;10.75;;;;;;;;;;5035811;28;20641;-70
2023/06/17 05:36:12;;;;;;;16.95;11.93;;;;;;;;;;5035665;28;20121;-71
2023/06/17 05:38:38;;;;;;;16.83;11.35;;;;;;;;;;5035646;28;20091;-71
2023/06/17 05:41:04;;;;;;;13.48;9.63;;;;;;;;;;5035585;28;20488;-71
2023/06/17 05:43:30;;;;;;;18.63;11.25;;;;;;;;;;5035312;28;20095;-71
2023/06/17 05:45:56;;;;;;;13.98;10.98;;;;;;;;;;5035529;28;20022;-71
2023/06/17 05:48:22;;;;;;;14.45;10.43;;;;;;;;;;5035470;28;20096;-71
2023/06/17 05:50:48;;;;;;;17.10;11.05;;;;;;;;;;5035460;28;20467;-71
2023/06/17 05:53:15;;;;;;;14.25;10.13;;;;;;;;;;5035346;28;20031;-71
2023/06/17 05:55:41;;;;;;;16.10;10.68;;;;;;;;;;5035473;28;20033;-71
2023/06/17 05:58:07;;;;;;;14.48;10.77;;;;;;;;;;5035315;28;20420;-71
2023/06/17 06:00:33;;;;;;;13.63;9.32;;;;;;;;;;5035156;28;20044;-71
2023/06/17 06:02:59;;;;;;;12.95;10.00;;;;;;;;;;5034966;28;20428;-71
2023/06/17 06:05:25;;;;;;;14.50;9.00;;;;;;;;;;5035296;28;20022;-71
2023/06/17 06:07:51;;;;;;;16.15;10.05;;;;;;;;;;5035318;28;20396;-71
2023/06/17 06:10:17;;;;;;;13.68;7.97;;;;;;;;;;5035073;28;20029;-71
2023/06/17 06:12:43;;;;;;;11.65;9.32;;;;;;;;;;5033588;28;20053;-71
2023/06/17 06:15:09;;;;;;;17.30;9.80;;;;;;;;;;5034604;28;20472;-71
2023/06/17 06:17:35;;;;;;;12.98;9.43;;;;;;;;;;5034936;28;20079;-71
2023/06/17 06:20:01;;;;;;;14.00;9.23;;;;;;;;;;5034847;28;20523;-71
2023/06/17 06:22:27;;;;;;;14.00;8.57;;;;;;;;;;5034871;28;20049;-71
2023/06/17 06:24:54;;;;;;;11.85;7.32;;;;;;;;;;5033362;28;20080;-71
2023/06/17 06:27:20;;;;;;;13.23;8.55;;;;;;;;;;5034709;28;20033;-71
2023/06/17 06:29:46;;;;;;;11.63;8.18;;;;;;;;;;5034627;28;20053;-71
2023/06/17 06:32:12;;;;;;;13.73;8.98;;;;;;;;;;5034486;28;20053;-71
2023/06/17 06:34:38;;;;;;;11.70;8.55;;;;;;;;;;5034400;28;20026;-71
2023/06/17 06:37:04;;;;;;;14.43;8.60;;;;;;;;;;5034562;28;20025;-72
2023/06/17 06:39:30;;;;;;;12.27;7.90;;;;;;;;;;5034404;28;20491;-72
2023/06/17 06:41:57;;;;;;;11.27;8.43;;;;;;;;;;5034373;28;20129;-72
2023/06/17 06:44:23;;;;;;;13.73;8.32;;;;;;;;;;5034145;28;20440;-72
2023/06/17 06:46:49;;;;;;;13.75;8.10;;;;;;;;;;5034384;28;20030;-71
2023/06/17 06:49:15;;;;;;;10.35;7.85;;;;;;;;;;5034252;28;20025;-71
2023/06/17 06:51:41;;;;;;;10.45;7.70;;;;;;;;;;5034037;28;20030;-71
2023/06/17 06:54:07;;;;;;;9.55;7.28;;;;;;;;;;5033837;28;20029;-71
2023/06/17 06:56:33;;;;;;;11.93;7.63;;;;;;;;;;5034068;28;20041;-71
2023/06/17 06:58:59;;;;;;;13.20;8.00;;;;;;;;;;5034008;28;20037;-71
2023/06/17 07:01:29;;;;;;;11.52;7.53;;;;;;;;;;5034341;28;20025;-71
2023/06/17 07:03:55;;;;;;;11.18;7.13;;;;;;;;;;5033881;28;20018;-72
2023/06/17 07:06:21;;;;;;;9.82;6.97;;;;;;;;;;5033737;28;20033;-72
2023/06/17 07:08:47;;;;;;;11.98;6.13;;;;;;;;;;5033817;28;20037;-72
2023/06/17 07:11:13;;;;;;;8.85;7.03;;;;;;;;;;5033780;28;20131;-72
2023/06/17 07:13:39;;;;;;;10.45;7.72;;;;;;;;;;5033634;28;20656;-72
2023/06/17 07:16:05;;;;;;;10.15;7.13;;;;;;;;;;5033609;28;20025;-72
2023/06/17 07:18:31;;;;;;;8.32;6.22;;;;;;;;;;5033761;28;20087;-72
2023/06/17 07:20:57;;;;;;;9.93;7.45;;;;;;;;;;5033905;28;20026;-72
2023/06/17 07:23:26;;;;;;;9.30;7.70;;;;;;;;;;5033635;28;20087;-72
2023/06/17 07:25:52;;;;;;;9.35;6.43;;;;;;;;;;5033431;28;20030;-72
2023/06/17 07:28:18;;;;;;;9.48;6.43;;;;;;;;;;5033538;28;20029;-72
2023/06/17 07:30:44;;;;;;;7.13;5.97;;;;;;;;;;5033716;28;20454;-72
2023/06/17 07:33:10;;;;;;;10.38;6.50;;;;;;;;;;5032108;28;20048;-72
2023/06/17 07:35:43;;;;;;;10.25;6.78;;;;;;;;;;5033267;28;20447;-72
2023/06/17 07:38:09;;;;;;;9.27;6.82;;;;;;;;;;5033148;28;20021;-72
2023/06/17 07:40:36;;;;;;;10.82;6.40;;;;;;;;;;5031936;28;20108;-72
2023/06/17 07:43:10;;;;;;;9.65;6.57;;;;;;;;;;5033073;28;20068;-72
2023/06/17 07:45:36;;;;;;;8.27;6.60;;;;;;;;;;5032778;28;20053;-72
2023/06/17 07:48:02;;;;;;;8.38;7.38;;;;;;;;;;5033403;28;20029;-73
2023/06/17 07:50:28;;;;;;;9.35;7.25;;;;;;;;;;5033292;28;20113;-73
2023/06/17 07:52:57;;;;;;;7.97;6.80;;;;;;;;;;5033642;28;20447;-73
2023/06/17 07:55:23;;;;;;;8.20;7.07;;;;;;;;;;5033481;28;20507;-73
2023/06/17 07:57:49;;;;;;;10.95;6.65;;;;;;;;;;5033193;28;20121;-73
2023/06/17 08:00:15;;;;;;;9.02;7.13;;;;;;;;;;5033642;28;20068;-73
2023/06/17 08:02:42;;;;;;;9.27;7.60;;;;;;;;;;5033276;28;20074;-73
2023/06/17 08:05:08;;;;;;;11.95;6.88;;;;;;;;;;5033231;28;20412;-72
2023/06/17 08:07:35;;;;;;;8.45;6.85;;;;;;;;;;5032936;28;20057;-72
2023/06/17 08:10:01;;;;;;;9.25;6.55;;;;;;;;;;5033121;28;20524;-72
2023/06/17 08:12:27;;;;;;;11.07;7.03;;;;;;;;;;5032978;28;20096;-72
2023/06/17 08:14:53;;;;;;;9.35;6.90;;;;;;;;;;5033011;28;20059;-72
2023/06/17 08:17:19;;;;;;;8.70;6.63;;;;;;;;;;5032676;28;20476;-72
2023/06/17 08:19:45;;;;;;;8.63;6.88;;;;;;;;;;5032674;28;20075;-72
2023/06/17 08:22:11;;;;;;;11.05;7.65;;;;;;;;;;5032801;28;20029;-72
2023/06/17 08:24:37;;;;;;;12.73;7.65;;;;;;;;;;5032649;28;20392;-72
2023/06/17 08:27:05;;;;;;;8.15;7.28;;;;;;;;;;5032790;28;20036;-72
2023/06/17 08:29:31;;;;;;;10.23;7.20;;;;;;;;;;5033024;28;20049;-72
2023/06/17 08:31:58;;;;;;;13.00;7.85;;;;;;;;;;5032403;28;20057;-72
2023/06/17 08:34:24;;;;;;;9.07;8.13;;;;;;;;;;5032545;28;20455;-72
2023/06/17 08:36:54;;;;;;;8.95;7.13;;;;;;;;;;5032813;28;20404;-72
2023/06/17 08:39:20;;;;;;;9.20;7.30;;;;;;;;;;5032504;28;20607;-72
2023/06/17 08:41:46;;;;;;;8.25;7.28;;;;;;;;;;5032505;28;20017;-72
2023/06/17 08:44:13;;;;;;;8.20;6.97;;;;;;;;;;5032554;28;20053;-72
2023/06/17 08:46:40;;;;;;;9.15;7.35;;;;;;;;;;5032956;28;20079;-72
2023/06/17 08:49:09;;;;;;;9.77;7.88;;;;;;;;;;5032270;28;20128;-72
2023/06/17 08:51:35;;;;;;;;;;;;;;;;;;5032770;28;20025;-72
2023/06/17 08:54:01;;;;;;;11.90;7.90;;;;;;;;;;5032396;28;19912;-72
2023/06/17 08:56:28;;;;;;;11.27;8.43;;;;;;;;;;5032112;28;20524;-72
2023/06/17 08:58:55;;;;;;;9.02;7.18;;;;;;;;;;5032128;28;20084;-72
2023/06/17 09:01:21;;;;;;;10.85;7.93;;;;;;;;;;5032213;28;20014;-72
2023/06/17 09:03:47;;;;;;;8.82;7.30;;;;;;;;;;5030889;28;20021;-72
2023/06/17 09:06:20;;;;;;;8.82;7.22;;;;;;;;;;5032060;28;20029;-72
2023/06/17 09:08:47;;;;;;;8.60;7.68;;;;;;;;;;5032244;28;20520;-72
2023/06/17 09:11:13;;;;;;;10.30;6.93;;;;;;;;;;5032058;28;20021;-72
2023/06/17 09:13:39;;;;;;;8.48;7.57;;;;;;;;;;5032082;28;20029;-72
2023/06/17 09:16:05;;;;;;;10.13;7.30;;;;;;;;;;5032182;28;20033;-72
2023/06/17 09:18:37;;;;;;;9.93;7.05;;;;;;;;;;5032038;28;20025;-72
2023/06/17 09:21:03;;;;;;;8.55;6.22;;;;;;;;;;5032044;28;20030;-72
2023/06/17 09:23:36;;;;;;;8.90;6.05;;;;;;;;;;5032025;28;20037;-72
2023/06/17 09:26:05;;;;;;;9.52;7.43;;;;;;;;;;5031847;28;20482;-72
2023/06/17 09:28:33;;;;;;;8.18;6.88;;;;;;;;;;5031930;28;20030;-72
2023/06/17 09:31:04;;;;;;;8.90;6.70;;;;;;;;;;5031826;28;20065;-72
2023/06/17 09:33:30;;;;;;;8.63;7.07;;;;;;;;;;5031920;28;20026;-72
2023/06/17 09:36:04;;;;;;;8.35;6.70;;;;;;;;;;5031754;28;20038;-72
2023/06/17 09:38:33;;;;;;;10.65;7.40;;;;;;;;;;5031842;28;20022;-72
2023/06/17 09:40:59;;;;;;;7.30;6.30;;;;;;;;;;5031816;28;20029;-72
2023/06/17 09:43:26;;;;;;;11.02;6.95;;;;;;;;;;5031464;28;20609;-72
2023/06/17 09:46:02;;;;;;;10.93;6.70;;;;;;;;;;5031765;28;20029;-72
2023/06/17 09:48:32;;;;;;;9.90;7.07;;;;;;;;;;5031943;28;20022;-72
2023/06/17 09:50:59;;;;;;;8.95;6.55;;;;;;;;;;5034943;28;20014;-72
2023/06/17 09:53:27;;;;;;;8.07;6.75;;;;;;;;;;5035413;28;20024;-72
2023/06/17 09:55:57;;;;;;;11.35;7.03;;;;;;;;;;5035578;28;20028;-72
2023/06/17 09:58:26;;;;;;;7.80;6.53;;;;;;;;;;5035396;28;20014;-72
2023/06/17 10:00:53;;;;;;;10.15;6.93;;;;;;;;;;5035232;28;20017;-72
2023/06/17 10:03:20;;;;;;;11.88;6.95;;;;;;;;;;5035153;28;20112;-72
2023/06/17 10:06:06;;;;;;;9.27;6.55;;;;;;;;;;5033814;28;20014;-72
2023/06/17 10:08:35;;;;;;;10.23;6.75;;;;;;;;;;5028013;28;20032;-72
2023/06/17 10:11:01;;;;;;;11.75;6.82;;;;;;;;;;5035238;28;20595;-72
2023/06/17 10:13:29;;;;;;;8.48;6.70;;;;;;;;;;5034922;28;20108;-72
2023/06/17 10:15:57;;;;;;;9.95;7.45;;;;;;;;;;5034797;28;20033;-72
2023/06/17 10:18:23;;;;;;;9.68;7.45;;;;;;;;;;5034882;28;20079;-72
2023/06/17 10:20:51;;;;;;;11.27;7.38;;;;;;;;;;5034942;28;20125;-72
2023/06/17 10:23:19;;;;;;;12.27;7.80;;;;;;;;;;5034822;28;20025;-72
2023/06/17 10:25:46;;;;;;;11.17;6.97;;;;;;;;;;5035048;28;20030;-72
2023/06/17 10:28:14;;;;;;;10.50;7.07;;;;;;;;;;5034705;28;20029;-72
2023/06/17 10:30:43;;;;;;;13.07;7.90;;;;;;;;;;5034627;28;20100;-72
2023/06/17 10:33:09;;;;;;;9.50;7.10;;;;;;;;;;5034640;28;20029;-72
2023/06/17 10:35:42;;;;;;;11.80;8.43;;;;;;;;;;5034714;28;20030;-72
2023/06/17 10:38:09;;;;;;;14.25;8.32;;;;;;;;;;5034636;28;20026;-72
2023/06/17 10:40:39;;;;;;;12.68;9.05;;;;;;;;;;5034511;28;20013;-72
2023/06/17 10:43:06;;;;;;;10.55;8.13;;;;;;;;;;5034243;28;20108;-72
2023/06/17 10:45:33;;;;;;;12.15;7.90;;;;;;;;;;5032984;28;20050;-72
2023/06/17 10:48:23;;;;;;;16.10;8.90;;;;;;;;;;5034098;28;20503;-72
2023/06/17 10:50:52;;;;;;;8.88;7.70;;;;;;;;;;5028687;28;20558;-72
2023/06/17 10:53:22;;;;;;;9.57;7.38;;;;;;;;;;5034049;28;20412;-72
2023/06/17 10:55:48;;;;;;;12.98;8.32;;;;;;;;;;5034007;28;20025;-72
2023/06/17 10:58:14;;;;;;;11.90;7.55;;;;;;;;;;5033992;28;20397;-72
2023/06/17 11:00:40;;;;;;;10.73;7.93;;;;;;;;;;5033036;28;20100;-72
2023/06/17 11:03:08;;;;;;;11.70;7.53;;;;;;;;;;5033712;28;20030;-72
2023/06/17 11:05:38;;;;;;;10.73;7.82;;;;;;;;;;5033905;28;20065;-72
2023/06/17 11:08:05;;;;;;;9.27;7.72;;;;;;;;;;5033761;28;20021;-72
2023/06/17 11:10:31;;;;;;;14.20;8.25;;;;;;;;;;5033860;28;20021;-72
2023/06/17 11:12:57;;;;;;;10.45;7.60;;;;;;;;;;5033763;28;20025;-72
2023/06/17 11:15:23;;;;;;;11.20;8.40;;;;;;;;;;5033515;28;20449;-72
2023/06/17 11:17:59;;;;;;;8.77;6.07;;;;;;;;;;5033651;28;20045;-72
2023/06/17 11:20:25;;;;;;;10.82;7.35;;;;;;;;;;5033521;28;20033;-72
2023/06/17 11:22:51;;;;;;;11.63;7.20;;;;;;;;;;5033436;28;20026;-72
2023/06/17 11:25:18;;;;;;;10.98;7.70;;;;;;;;;;5033487;28;20029;-72
2023/06/17 11:27:47;;;;;;;9.45;7.20;;;;;;;;;;5033622;28;20022;-72
2023/06/17 11:30:14;;;;;;;;;;;;;;;;;;5033794;28;20024;-72
2023/06/17 11:32:41;;;;;;;9.80;7.32;;;;;;;;;;5033506;28;20256;-72
2023/06/17 11:35:08;;;;;;;11.65;7.60;;;;;;;;;;5033185;28;20028;-72
2023/06/17 11:37:34;;;;;;;9.45;7.30;;;;;;;;;;5033150;28;20025;-72
2023/06/17 11:40:00;;;;;;;11.23;7.60;;;;;;;;;;5033513;28;20404;-72
2023/06/17 11:42:27;;;;;;;9.02;7.43;;;;;;;;;;5033083;28;20520;-72
2023/06/17 11:44:53;;;;;;;9.10;6.35;;;;;;;;;;5031750;28;20050;-72
2023/06/17 11:47:31;;;;;;;10.52;7.10;;;;;;;;;;5033012;28;20107;-72
2023/06/17 11:49:58;;;;;;;8.43;7.18;;;;;;;;;;5033034;28;20033;-72
2023/06/17 11:52:24;;;;;;;10.27;7.38;;;;;;;;;;5032925;28;20451;-72
2023/06/17 11:54:50;;;;;;;10.15;7.22;;;;;;;;;;5032914;28;20032;-72
2023/06/17 11:57:17;;;;;;;10.02;7.97;;;;;;;;;;5032960;28;20465;-72
2023/06/17 11:59:43;;;;;;;10.57;7.85;;;;;;;;;;5032929;28;20372;-72
2023/06/17 12:02:10;;;;;;;12.27;8.80;;;;;;;;;;5033056;28;20080;-72
2023/06/17 12:04:36;;;;;;;13.05;8.30;;;;;;;;;;5032780;28;20628;-72
2023/06/17 12:07:08;;;;;;;11.02;8.57;;;;;;;;;;5032692;28;20034;-72
2023/06/17 12:09:38;;;;;;;14.55;8.80;;;;;;;;;;5032683;28;20053;-72
2023/06/17 12:12:04;;;;;;;;;;;;;;;;;;5032721;28;20034;-72
2023/06/17 12:14:30;;;;;;;11.45;7.97;;;;;;;;;;5032696;28;19912;-72
2023/06/17 12:16:56;;;;;;;11.05;7.85;;;;;;;;;;5032238;28;20522;-72
2023/06/17 12:19:23;;;;;;;10.75;6.97;;;;;;;;;;5032623;28;20062;-72
2023/06/17 12:21:49;;;;;;;11.27;7.78;;;;;;;;;;5032687;28;20028;-72
2023/06/17 12:24:16;;;;;;;12.73;7.93;;;;;;;;;;5032546;28;20061;-72
2023/06/17 12:26:43;;;;;;;11.40;8.45;;;;;;;;;;5032325;28;20078;-72
2023/06/17 12:29:09;;;;;;;9.50;7.80;;;;;;;;;;5032336;28;20104;-72
2023/06/17 12:31:35;;;;;;;11.43;7.07;;;;;;;;;;5032402;28;20473;-72
2023/06/17 12:34:02;;;;;;;11.55;7.75;;;;;;;;;;5032553;28;20026;-72
2023/06/17 12:36:27;;;;;;;9.60;6.97;;;;;;;;;;5032146;28;20512;-72
2023/06/17 12:38:53;;;;;;;9.50;7.43;;;;;;;;;;5032225;28;20022;-72
2023/06/17 12:41:19;;;;;;;14.07;8.40;;;;;;;;;;5032255;28;20452;-72
2023/06/17 12:43:45;;;;;;;10.95;7.57;;;;;;;;;;5030827;28;20464;-72
2023/06/17 12:46:11;;;;;;;10.32;7.35;;;;;;;;;;5032259;28;20065;-72
2023/06/17 12:48:38;;;;;;;9.77;7.28;;;;;;;;;;5032236;28;20116;-72
2023/06/17 12:51:04;;;;;;;10.38;7.55;;;;;;;;;;5032042;28;20029;-72
2023/06/17 12:53:30;;;;;;;12.27;7.63;;;;;;;;;;5031772;28;20033;-71
2023/06/17 12:55:56;;;;;;;9.27;7.35;;;;;;;;;;5032006;28;20468;-72
2023/06/17 12:58:24;;;;;;;7.63;6.78;;;;;;;;;;5032255;28;20527;-72
2023/06/17 13:00:50;;;;;;;13.85;7.22;;;;;;;;;;5032079;28;20025;-72
2023/06/17 13:03:17;;;;;;;12.85;7.78;;;;;;;;;;5032098;28;20388;-72
2023/06/17 13:05:43;;;;;;;14.63;7.13;;;;;;;;;;5032258;28;20025;-72
2023/06/17 13:08:09;;;;;;;8.52;6.32;;;;;;;;;;5032073;28;20025;-72
2023/06/17 13:10:36;;;;;;;11.93;7.32;;;;;;;;;;5032139;28;20024;-72
2023/06/17 13:13:02;;;;;;;11.05;7.03;;;;;;;;;;5031970;28;20022;-72
2023/06/17 13:15:35;;;;;;;9.30;7.55;;;;;;;;;;5031957;28;20109;-72
2023/06/17 13:18:01;;;;;;;11.18;7.53;;;;;;;;;;5032169;28;20503;-72
2023/06/17 13:20:27;;;;;;;9.20;6.55;;;;;;;;;;5032019;28;20025;-72
2023/06/17 13:22:53;;;;;;;9.25;6.50;;;;;;;;;;5032040;28;20411;-72
2023/06/17 13:25:19;;;;;;;7.40;6.30;;;;;;;;;;5034389;28;20030;-72
2023/06/17 13:27:45;;;;;;;9.73;6.88;;;;;;;;;;5035538;28;20346;-72
2023/06/17 13:30:11;;;;;;;8.68;6.68;;;;;;;;;;5035795;28;20120;-72
2023/06/17 13:32:37;;;;;;;10.75;5.25;;;;;;;;;;5035232;28;20021;-72
2023/06/17 13:35:04;;;;;;;13.02;6.57;;;;;;;;;;5035416;28;20032;-72
2023/06/17 13:37:31;;;;;;;10.60;7.03;;;;;;;;;;5035433;28;20021;-72
2023/06/17 13:39:57;;;;;;;7.93;5.47;;;;;;;;;;5035608;28;20022;-72
2023/06/17 13:42:23;;;;;;;8.70;7.07;;;;;;;;;;5035455;28;20032;-72
2023/06/17 13:44:49;;;;;;;6.95;5.13;;;;;;;;;;5034895;28;20484;-72
2023/06/17 13:47:15;;;;;;;8.57;6.13;;;;;;;;;;5035328;28;20144;-72
2023/06/17 13:49:41;;;;;;;8.13;6.07;;;;;;;;;;5035271;28;20122;-72
2023/06/17 13:52:08;;;;;;;9.00;5.93;;;;;;;;;;5034966;28;20104;-72
2023/06/17 13:54:34;;;;;;;7.25;5.97;;;;;;;;;;5035190;28;20025;-72
2023/06/17 13:57:00;;;;;;;6.80;6.10;;;;;;;;;;5035025;28;20030;-72
2023/06/17 13:59:26;;;;;;;8.32;6.18;;;;;;;;;;5035147;28;20022;-72
2023/06/17 14:01:52;;;;;;;7.97;5.93;;;;;;;;;;5035068;28;20083;-72
2023/06/17 14:04:18;;;;;;;8.75;6.70;;;;;;;;;;5035136;28;20483;-72
2023/06/17 14:06:46;;;;;;;6.88;5.88;;;;;;;;;;5035018;28;20065;-72
2023/06/17 14:09:12;;;;;;;7.75;6.38;;;;;;;;;;5034848;28;20108;-72
2023/06/17 14:11:38;;;;;;;8.77;5.93;;;;;;;;;;5034853;28;20088;-72
2023/06/17 14:14:05;;;;;;;9.95;6.55;;;;;;;;;;5034765;28;20021;-72
2023/06/17 14:16:31;;;;;;;8.15;6.65;;;;;;;;;;5034797;28;20180;-72
2023/06/17 14:18:58;;;;;;;9.93;6.32;;;;;;;;;;5035016;28;20416;-72
2023/06/17 14:21:34;;;;;;;7.90;6.50;;;;;;;;;;5034108;28;20170;-72
2023/06/17 14:24:03;;;;;;;9.45;6.55;;;;;;;;;;5034409;28;20025;-72
2023/06/17 14:26:29;;;;;;;8.73;6.22;;;;;;;;;;5035118;28;20025;-72